Time;durP1;ratioP1;P1;durP2;ratioP2;P2;SDS_P1;SDS_P2;PMS_P1;PMS_P2;Temp;Humidity;BMP_temperature;BMP_pressure;BME280_temperature;BME280_humidity;BME280_pressure;Samples;Min_cycle;Max_cycle;Signal;HPM_P1;HPM_P2
2021/12/25 00:00:48;;;;;;;10.40;3.33;;;20.30;40.70;;;;;;5029803;28;19974;-80
2021/12/25 00:03:15;;;;;;;13.32;3.40;;;20.20;43.40;;;;;;5018576;28;20053;-86
2021/12/25 00:05:41;;;;;;;13.48;3.20;;;20.10;42.50;;;;;;5019967;28;20469;-79
2021/12/25 00:08:07;;;;;;;7.07;2.13;;;20.10;41.70;;;;;;5016672;28;20133;-79
2021/12/25 00:10:32;;;;;;;7.53;2.25;;;20.00;40.70;;;;;;5015280;28;20508;-74
2021/12/25 00:12:58;;;;;;;12.25;2.67;;;19.90;40.50;;;;;;5017565;28;20982;-75
2021/12/25 00:15:24;;;;;;;7.72;2.50;;;19.90;40.80;;;;;;5012602;28;20056;-72
2021/12/25 00:17:50;;;;;;;7.57;2.28;;;19.90;40.90;;;;;;5015159;28;20628;-75
2021/12/25 00:20:19;;;;;;;7.88;2.25;;;20.00;41.00;;;;;;5015243;28;20065;-75
2021/12/25 00:22:44;;;;;;;7.25;2.33;;;20.00;40.90;;;;;;5019525;28;20068;-74
2021/12/25 00:25:10;;;;;;;5.72;2.20;;;20.00;40.80;;;;;;5016633;28;20408;-72
2021/12/25 00:32:53;;;;;;;4.28;1.83;;;20.30;41.20;;;;;;5016459;28;20093;-71
2021/12/25 00:35:24;;;;;;;6.75;1.98;;;20.30;41.30;;;;;;5012654;28;20500;-73
2021/12/25 00:37:50;;;;;;;8.30;2.03;;;20.30;41.50;;;;;;5014814;28;20034;-77
2021/12/25 00:40:17;;;;;;;5.68;1.92;;;20.30;41.60;;;;;;5018527;28;20044;-73
2021/12/25 00:42:43;;;;;;;8.55;2.10;;;20.40;41.80;;;;;;5021096;28;20061;-75
2021/12/25 00:45:09;;;;;;;10.48;2.00;;;20.40;41.80;;;;;;5016850;28;21139;-76
2021/12/25 00:47:35;;;;;;;9.95;2.05;;;20.50;41.80;;;;;;5013604;28;20042;-76
2021/12/25 00:50:01;;;;;;;4.43;1.80;;;20.50;41.80;;;;;;4998877;28;20030;-76
2021/12/25 00:52:26;;;;;;;8.50;2.10;;;20.60;41.80;;;;;;5032587;28;20057;-79
2021/12/25 00:54:52;;;;;;;8.52;1.48;;;20.60;41.80;;;;;;5013024;28;20448;-74
2021/12/25 00:57:18;;;;;;;7.45;1.98;;;20.60;41.90;;;;;;5016120;28;20134;-78
2021/12/25 00:59:43;;;;;;;4.57;2.08;;;20.60;41.90;;;;;;5014186;28;20659;-78
2021/12/25 01:02:09;;;;;;;9.02;1.92;;;20.70;42.00;;;;;;5012202;28;20401;-79
2021/12/25 01:04:35;;;;;;;7.30;1.90;;;20.70;42.00;;;;;;5015769;28;20053;-78
2021/12/25 01:07:00;;;;;;;7.00;1.83;;;20.70;42.10;;;;;;5030314;28;20033;-77
2021/12/25 01:09:26;;;;;;;3.80;1.50;;;20.70;42.10;;;;;;5012475;28;20096;-78
2021/12/25 01:11:52;;;;;;;7.35;1.40;;;20.70;42.20;;;;;;5013072;28;20514;-79
2021/12/25 01:14:35;;;;;;;5.38;1.75;;;20.70;42.20;;;;;;5014183;28;20068;-80
2021/12/25 01:17:31;;;;;;;3.25;1.38;;;20.70;42.20;;;;;;5009328;28;20037;-74
2021/12/25 01:25:46;;;;;;;7.75;1.52;;;20.80;42.40;;;;;;5017408;28;20049;-76
2021/12/25 01:33:51;;;;;;;4.85;1.55;;;20.80;42.60;;;;;;5016667;28;20123;-78
2021/12/25 01:49:41;;;;;;;6.15;1.50;;;20.90;42.80;;;;;;5008613;28;20153;-78
2021/12/25 01:52:08;;;;;;;3.97;1.23;;;20.90;42.80;;;;;;5012169;28;20575;-78
2021/12/25 01:54:34;;;;;;;11.23;1.40;;;20.90;42.80;;;;;;5011474;28;20128;-78
2021/12/25 01:57:00;;;;;;;4.35;1.42;;;20.90;42.80;;;;;;5014902;28;20103;-78
2021/12/25 01:59:26;;;;;;;4.00;1.50;;;20.90;42.90;;;;;;5012885;28;20056;-79
2021/12/25 02:01:51;;;;;;;5.60;1.10;;;20.90;42.90;;;;;;5015364;28;20042;-77
2021/12/25 02:04:17;;;;;;;3.72;1.20;;;20.90;42.90;;;;;;5015372;28;20052;-72
2021/12/25 02:06:43;;;;;;;4.25;1.30;;;20.90;42.90;;;;;;5012022;28;20444;-77
2021/12/25 02:09:09;;;;;;;3.53;1.10;;;20.90;42.90;;;;;;5011478;28;21519;-79
2021/12/25 02:11:34;;;;;;;3.28;1.00;;;20.90;43.00;;;;;;5009534;28;20069;-77
2021/12/25 02:14:00;;;;;;;3.15;1.10;;;20.90;42.90;;;;;;5014580;28;20042;-79
2021/12/25 02:16:30;;;;;;;2.75;1.10;;;20.90;43.00;;;;;;5012407;28;20053;-78
2021/12/25 02:21:26;;;;;;;3.67;1.15;;;20.90;43.00;;;;;;5014151;28;20603;-79
2021/12/25 02:23:56;;;;;;;3.92;1.00;;;20.90;43.00;;;;;;5015165;28;20127;-78
2021/12/25 02:26:24;;;;;;;3.25;0.85;;;20.90;43.00;;;;;;5013494;28;20050;-77
2021/12/25 02:28:50;;;;;;;3.17;1.20;;;20.90;43.00;;;;;;5009247;28;20041;-77
2021/12/25 02:31:17;;;;;;;3.95;1.23;;;20.90;43.00;;;;;;5012371;28;20410;-80
2021/12/25 02:33:43;;;;;;;3.35;1.00;;;20.90;43.00;;;;;;5012533;28;20117;-78
2021/12/25 02:36:13;;;;;;;2.50;1.23;;;20.90;43.00;;;;;;5015613;28;20921;-79
2021/12/25 02:38:38;;;;;;;3.72;1.00;;;20.90;43.00;;;;;;5013479;28;20038;-79
2021/12/25 02:41:05;;;;;;;2.85;0.98;;;20.90;43.10;;;;;;5032676;28;20038;-79
2021/12/25 02:43:31;;;;;;;4.00;0.90;;;20.90;43.10;;;;;;5016876;28;20041;-78
2021/12/25 02:46:03;;;;;;;2.53;1.02;;;20.90;43.10;;;;;;5020342;28;20128;-72
2021/12/25 02:48:31;;;;;;;3.00;0.80;;;20.90;43.10;;;;;;5014583;28;20068;-78
2021/12/25 02:50:57;;;;;;;2.40;0.82;;;20.90;43.20;;;;;;5000234;28;20041;-78
2021/12/25 02:53:23;;;;;;;2.55;0.70;;;20.90;43.20;;;;;;5020897;28;20079;-76
2021/12/25 02:55:49;;;;;;;4.90;1.00;;;20.90;43.10;;;;;;5015772;28;20053;-76
2021/12/25 02:58:19;;;;;;;2.28;0.85;;;20.90;43.10;;;;;;5034944;28;20038;-75
2021/12/25 03:00:49;;;;;;;2.47;1.02;;;20.90;43.10;;;;;;5035068;28;20041;-79
2021/12/25 03:03:15;;;;;;;3.72;0.90;;;20.90;43.20;;;;;;5015486;28;20076;-76
2021/12/25 03:05:41;;;;;;;2.03;0.77;;;20.90;43.20;;;;;;5020802;28;21023;-77
2021/12/25 03:08:09;;;;;;;1.63;0.73;;;20.80;43.10;;;;;;5031180;28;20088;-73
2021/12/25 03:10:36;;;;;;;2.90;0.95;;;20.90;43.20;;;;;;5032595;28;20061;-76
2021/12/25 03:15:46;;;;;;;3.67;0.98;;;20.80;43.10;;;;;;5013683;28;20136;-78
2021/12/25 03:18:18;;;;;;;2.92;0.85;;;20.90;43.10;;;;;;5017621;28;20124;-78
2021/12/25 03:20:46;;;;;;;3.30;0.80;;;20.90;43.10;;;;;;5030200;28;20068;-79
2021/12/25 03:23:21;;;;;;;0.90;0.50;;;20.90;43.20;;;;;;5033576;28;20045;-76
2021/12/25 03:25:48;;;;;;;2.20;0.80;;;20.90;43.20;;;;;;4997790;28;20057;-73
2021/12/25 03:28:15;;;;;;;3.03;0.68;;;20.80;43.10;;;;;;5031659;28;20049;-70
2021/12/25 03:30:43;;;;;;;1.23;0.50;;;20.90;43.20;;;;;;5032803;28;20065;-79
2021/12/25 03:33:14;;;;;;;1.65;0.60;;;20.90;43.20;;;;;;5014869;28;20063;-78
2021/12/25 03:35:40;;;;;;;3.58;0.60;;;20.90;43.20;;;;;;5015468;28;20117;-78
2021/12/25 03:38:08;;;;;;;2.03;0.60;;;20.90;43.20;;;;;;5019395;28;20128;-77
2021/12/25 03:40:35;;;;;;;2.67;0.80;;;20.90;43.20;;;;;;5016877;28;20065;-76
2021/12/25 03:43:00;;;;;;;2.25;0.68;;;20.80;43.10;;;;;;5018485;28;20053;-74
2021/12/25 03:45:29;;;;;;;3.25;0.95;;;20.90;44.00;;;;;;5015157;28;20040;-79
2021/12/25 03:48:05;;;;;;;1.45;0.65;;;20.90;43.20;;;;;;5006481;28;20068;-79
2021/12/25 03:53:35;;;;;;;1.77;0.80;;;20.90;43.20;;;;;;5016752;28;20058;-78
2021/12/25 03:58:52;;;;;;;1.20;0.50;;;20.90;43.20;;;;;;5020347;28;20052;-77
2021/12/25 04:01:43;;;;;;;4.53;0.77;;;20.90;43.20;;;;;;5014774;28;20096;-79
2021/12/25 04:04:32;;;;;;;1.73;0.60;;;20.90;43.20;;;;;;5012536;28;20046;-76
2021/12/25 04:07:03;;;;;;;1.10;0.55;;;20.80;43.20;;;;;;5016515;28;20041;-78
2021/12/25 04:09:31;;;;;;;1.40;0.52;;;20.90;43.20;;;;;;5014426;28;20045;-79
2021/12/25 04:12:10;;;;;;;2.05;0.77;;;20.80;43.20;;;;;;5016353;28;20064;-76
2021/12/25 04:14:37;;;;;;;1.80;0.60;;;20.80;43.20;;;;;;4999135;28;20052;-70
2021/12/25 04:17:03;;;;;;;1.27;0.57;;;20.80;43.30;;;;;;5008086;28;20419;-78
2021/12/25 04:19:29;;;;;;;1.52;0.60;;;20.80;43.30;;;;;;5014232;28;20828;-79
2021/12/25 04:22:03;;;;;;;2.22;0.70;;;20.80;43.40;;;;;;5014205;28;20037;-79
2021/12/25 04:24:32;;;;;;;2.08;0.80;;;20.80;43.40;;;;;;5015070;28;20041;-78
2021/12/25 04:26:58;;;;;;;1.25;0.65;;;20.80;43.30;;;;;;5014462;28;20072;-71
2021/12/25 05:04:34;;;;;;;1.70;0.60;;;20.80;43.30;;;;;;5013792;28;20050;-78
2021/12/25 05:06:59;;;;;;;1.50;0.57;;;20.80;43.30;;;;;;5014792;28;20050;-76
2021/12/25 05:09:24;;;;;;;1.70;0.40;;;20.80;43.30;;;;;;5012281;28;21012;-78
2021/12/25 05:11:50;;;;;;;1.08;0.50;;;20.80;43.20;;;;;;5015860;28;20128;-79
2021/12/25 05:14:16;;;;;;;0.80;0.43;;;20.80;43.20;;;;;;5010900;28;20053;-79
2021/12/25 05:16:42;;;;;;;1.33;0.63;;;20.80;43.20;;;;;;5010646;28;20119;-79
2021/12/25 05:19:08;;;;;;;0.73;0.40;;;20.80;43.10;;;;;;5014760;28;20104;-78
2021/12/25 05:21:35;;;;;;;0.43;0.38;;;20.80;43.10;;;;;;5012703;28;20048;-74
2021/12/25 05:24:01;;;;;;;1.48;0.70;;;20.80;43.10;;;;;;5013516;28;20037;-76
2021/12/25 05:26:26;;;;;;;2.35;0.50;;;20.80;43.10;;;;;;5014988;28;20045;-79
2021/12/25 05:28:59;;;;;;;0.77;0.38;;;20.80;43.10;;;;;;5031877;28;20049;-78
2021/12/25 05:31:26;;;;;;;1.50;0.50;;;20.90;43.10;;;;;;5013100;28;20050;-79
2021/12/25 05:33:52;;;;;;;0.68;0.47;;;20.80;43.10;;;;;;4996106;28;20034;-76
2021/12/25 05:36:18;;;;;;;1.10;0.40;;;20.80;43.10;;;;;;5013287;28;20040;-79
2021/12/25 05:38:43;;;;;;;0.68;0.40;;;20.80;43.10;;;;;;5016337;28;20043;-78
2021/12/25 05:41:11;;;;;;;1.20;0.55;;;20.80;43.00;;;;;;5012516;28;20046;-78
2021/12/25 05:43:37;;;;;;;0.80;0.40;;;20.90;43.00;;;;;;5016140;28;20425;-76
2021/12/25 05:46:02;;;;;;;1.60;0.55;;;20.80;43.00;;;;;;5017666;28;20041;-76
2021/12/25 05:48:35;;;;;;;0.75;0.35;;;20.80;43.00;;;;;;5015612;28;20033;-74
2021/12/25 05:51:04;;;;;;;1.50;0.47;;;20.80;43.00;;;;;;5014318;28;20757;-73
2021/12/25 05:53:30;;;;;;;1.58;0.50;;;20.80;43.00;;;;;;5012825;28;20073;-79
2021/12/25 05:55:55;;;;;;;1.38;0.40;;;20.80;43.00;;;;;;5013153;28;20080;-78
2021/12/25 05:58:21;;;;;;;0.77;0.35;;;20.80;43.70;;;;;;5028588;28;20127;-78
2021/12/25 06:00:46;;;;;;;0.63;0.30;;;20.80;42.90;;;;;;5026674;28;20038;-76
2021/12/25 06:03:12;;;;;;;1.60;0.40;;;20.80;42.90;;;;;;5013090;28;20045;-79
2021/12/25 06:05:38;;;;;;;0.47;0.30;;;20.80;42.80;;;;;;5012351;28;20060;-79
2021/12/25 06:08:04;;;;;;;2.15;0.60;;;20.80;42.80;;;;;;5015908;28;20119;-79
2021/12/25 06:10:29;;;;;;;0.50;0.32;;;20.80;42.90;;;;;;5013088;28;20044;-78
2021/12/25 06:12:58;;;;;;;0.80;0.47;;;20.80;42.80;;;;;;5016111;28;20062;-74
2021/12/25 06:15:26;;;;;;;0.77;0.30;;;20.80;42.90;;;;;;5014511;28;20050;-78
2021/12/25 06:17:52;;;;;;;1.17;0.50;;;20.80;42.80;;;;;;4999727;28;20064;-78
2021/12/25 06:20:18;;;;;;;1.10;0.45;;;20.80;42.80;;;;;;5018636;28;20046;-79
2021/12/25 06:22:43;;;;;;;1.13;0.40;;;20.80;42.80;;;;;;5001891;28;20091;-79
2021/12/25 06:25:10;;;;;;;1.30;0.38;;;20.80;42.80;;;;;;5014603;28;20046;-75
2021/12/25 06:27:36;;;;;;;0.77;0.40;;;20.80;42.80;;;;;;5013792;28;20053;-74
2021/12/25 06:30:04;;;;;;;1.20;0.40;;;20.80;42.80;;;;;;5025652;28;20061;-79
2021/12/25 06:32:29;;;;;;;0.60;0.30;;;20.80;42.80;;;;;;5016584;28;20050;-78
2021/12/25 06:34:55;;;;;;;0.82;0.40;;;20.80;42.80;;;;;;5015769;28;20607;-74
2021/12/25 06:37:20;;;;;;;2.35;0.40;;;20.90;42.90;;;;;;5017799;28;20050;-76
2021/12/25 06:39:48;;;;;;;0.65;0.40;;;20.80;43.00;;;;;;5008042;28;20051;-73
2021/12/25 06:42:14;;;;;;;0.57;0.30;;;20.80;43.10;;;;;;5017914;28;20041;-75
2021/12/25 06:44:43;;;;;;;2.78;0.40;;;20.70;43.10;;;;;;5014965;28;20056;-71
2021/12/25 06:47:09;;;;;;;0.70;0.32;;;20.70;43.10;;;;;;5000935;28;20042;-73
2021/12/25 06:49:34;;;;;;;1.52;0.32;;;20.80;43.20;;;;;;5039954;28;20042;-77
2021/12/25 06:52:00;;;;;;;0.50;0.30;;;20.70;43.00;;;;;;5036976;28;20124;-75
2021/12/25 06:54:26;;;;;;;0.82;0.30;;;20.80;43.00;;;;;;5017258;28;20413;-76
2021/12/25 06:56:52;;;;;;;0.98;0.38;;;20.80;43.90;;;;;;5017453;28;20042;-78
2021/12/25 06:59:23;;;;;;;0.70;0.50;;;20.80;43.10;;;;;;5011603;28;20077;-75
2021/12/25 07:01:50;;;;;;;1.02;0.40;;;20.80;43.10;;;;;;5012333;28;20045;-76
2021/12/25 07:04:16;;;;;;;0.43;0.25;;;20.80;43.20;;;;;;5016872;28;20050;-75
2021/12/25 07:06:42;;;;;;;1.67;0.40;;;20.80;43.20;;;;;;5014348;28;20455;-79
2021/12/25 07:09:08;;;;;;;1.45;0.63;;;20.80;43.20;;;;;;5020132;28;20512;-75
2021/12/25 07:11:34;;;;;;;0.45;0.20;;;20.80;43.10;;;;;;5019301;28;20091;-82
2021/12/25 07:14:02;;;;;;;1.55;0.52;;;20.80;42.80;;;;;;5014665;28;20460;-79
2021/12/25 07:16:28;;;;;;;1.55;0.32;;;20.80;42.70;;;;;;5018252;28;20053;-81
2021/12/25 07:18:53;;;;;;;2.10;0.50;;;20.80;42.60;;;;;;5018295;28;20048;-80
2021/12/25 07:21:19;;;;;;;1.02;0.45;;;20.90;42.60;;;;;;5017313;28;20030;-76
2021/12/25 07:23:45;;;;;;;2.63;0.30;;;20.90;42.50;;;;;;5019462;28;20041;-82
2021/12/25 07:26:10;;;;;;;0.85;0.38;;;20.90;42.50;;;;;;5017526;28;20049;-82
2021/12/25 07:28:36;;;;;;;0.93;0.40;;;20.90;42.60;;;;;;5017061;28;20501;-82
2021/12/25 07:31:02;;;;;;;2.13;0.55;;;20.90;42.60;;;;;;5012768;28;20083;-81
2021/12/25 07:33:29;;;;;;;2.75;0.38;;;20.90;42.60;;;;;;5017017;28;20034;-79
2021/12/25 07:35:55;;;;;;;0.47;0.30;;;20.90;42.60;;;;;;5034484;28;20046;-82
2021/12/25 07:38:22;;;;;;;0.75;0.60;;;20.90;42.60;;;;;;5034967;28;20508;-82
2021/12/25 07:40:48;;;;;;;1.27;0.45;;;20.90;42.60;;;;;;5003104;28;20042;-84
2021/12/25 07:43:14;;;;;;;1.67;0.43;;;20.90;42.60;;;;;;5021257;28;20075;-71
2021/12/25 07:45:40;;;;;;;1.77;0.50;;;20.90;42.80;;;;;;5013149;28;20066;-76
2021/12/25 07:48:06;;;;;;;2.25;0.63;;;20.90;42.90;;;;;;5016241;28;20059;-77
2021/12/25 07:50:34;;;;;;;2.30;0.88;;;20.90;42.90;;;;;;5018129;28;20046;-82
2021/12/25 07:53:00;;;;;;;1.83;0.60;;;20.90;42.90;;;;;;5013199;28;20050;-82
2021/12/25 07:55:32;;;;;;;1.95;0.40;;;20.90;42.90;;;;;;5018072;28;20052;-82
2021/12/25 07:57:58;;;;;;;2.72;0.40;;;20.90;42.80;;;;;;5015778;28;20422;-82
2021/12/25 08:00:24;;;;;;;1.63;0.40;;;20.80;42.80;;;;;;5020058;28;20044;-80
2021/12/25 08:02:50;;;;;;;1.60;0.45;;;20.80;42.80;;;;;;5024589;28;20531;-78
2021/12/25 08:05:15;;;;;;;3.90;0.60;;;20.80;42.80;;;;;;5016647;28;20050;-80
2021/12/25 08:07:43;;;;;;;1.58;0.40;;;20.80;42.80;;;;;;5025092;28;20053;-78
2021/12/25 08:10:13;;;;;;;6.70;0.57;;;20.80;43.00;;;;;;5026964;28;20120;-80
2021/12/25 08:12:46;;;;;;;1.60;0.50;;;20.80;43.10;;;;;;5027365;28;20041;-82
2021/12/25 08:15:14;;;;;;;4.18;0.50;;;20.80;43.10;;;;;;5025442;28;20069;-80
2021/12/25 08:17:40;;;;;;;4.57;1.23;;;20.80;43.20;;;;;;5026386;28;20129;-80
2021/12/25 08:20:07;;;;;;;2.25;0.50;;;20.80;43.10;;;;;;5026130;28;20111;-79
2021/12/25 08:22:33;;;;;;;3.92;0.52;;;20.80;43.00;;;;;;5026931;28;20061;-80
2021/12/25 08:24:59;;;;;;;1.15;0.40;;;20.90;43.00;;;;;;5020669;28;20634;-79
2021/12/25 08:27:24;;;;;;;1.95;0.50;;;20.90;43.10;;;;;;5017064;28;20049;-78
2021/12/25 08:29:50;;;;;;;3.70;0.57;;;20.90;43.00;;;;;;5025359;28;20081;-78
2021/12/25 08:32:16;;;;;;;3.38;0.85;;;20.90;43.00;;;;;;5023731;28;20042;-80
2021/12/25 08:34:42;;;;;;;2.72;0.77;;;21.00;43.00;;;;;;5025670;28;20401;-80
2021/12/25 08:37:08;;;;;;;0.57;0.40;;;21.20;42.90;;;;;;5025450;28;20531;-78
2021/12/25 08:39:34;;;;;;;1.52;0.60;;;21.30;42.70;;;;;;5019431;28;20052;-77
2021/12/25 08:42:03;;;;;;;2.17;0.52;;;21.60;42.30;;;;;;5024426;28;20517;-75
2021/12/25 08:44:35;;;;;;;;;;;21.90;41.70;;;;;;5026365;28;20061;-76
2021/12/25 08:47:04;;;;;;;6.47;0.80;;;22.20;41.50;;;;;;5025397;28;19924;-76
2021/12/25 08:49:32;;;;;;;2.22;0.70;;;22.10;41.10;;;;;;5023991;28;20508;-77
2021/12/25 08:52:10;;;;;;;1.05;0.30;;;22.00;41.30;;;;;;5026398;28;20069;-76
2021/12/25 08:54:36;;;;;;;0.77;0.40;;;21.90;41.50;;;;;;5025185;28;20535;-73
2021/12/25 08:57:03;;;;;;;2.13;0.50;;;21.70;41.70;;;;;;5025133;28;20062;-74
2021/12/25 08:59:29;;;;;;;3.45;0.60;;;21.60;41.90;;;;;;4996036;28;20480;-75
2021/12/25 09:01:58;;;;;;;2.05;0.47;;;21.50;42.10;;;;;;5025360;28;20038;-78
2021/12/25 09:04:23;;;;;;;2.15;0.50;;;21.40;42.30;;;;;;5023840;28;20056;-74
2021/12/25 09:06:49;;;;;;;2.72;0.60;;;21.40;43.30;;;;;;5025296;28;20045;-76
2021/12/25 09:09:14;;;;;;;1.38;0.50;;;21.30;42.60;;;;;;5026894;28;20140;-75
2021/12/25 09:11:41;;;;;;;4.95;0.55;;;21.30;42.80;;;;;;5024963;28;20033;-74
2021/12/25 09:14:07;;;;;;;82.15;8.35;;;21.30;42.90;;;;;;5024669;28;20127;-75
2021/12/25 09:16:34;;;;;;;119.05;13.10;;;21.20;42.90;;;;;;5003091;28;20045;-76
2021/12/25 09:19:00;;;;;;;111.35;11.93;;;21.20;43.00;;;;;;5018979;28;20447;-73
2021/12/25 09:21:26;;;;;;;87.65;13.07;;;21.30;43.00;;;;;;5016552;28;20053;-73
2021/12/25 09:23:52;;;;;;;89.88;10.45;;;21.40;43.00;;;;;;5011573;28;20060;-73
2021/12/25 09:26:17;;;;;;;126.78;31.50;;;21.40;43.00;;;;;;5028059;28;20050;-73
2021/12/25 09:28:44;;;;;;;86.13;17.52;;;21.40;43.00;;;;;;5022322;28;20038;-76
2021/12/25 09:31:10;;;;;;;82.22;15.73;;;21.30;43.10;;;;;;5012316;28;20092;-78
2021/12/25 09:33:35;;;;;;;82.45;13.90;;;21.30;43.30;;;;;;5009011;28;20049;-79
2021/12/25 09:36:02;;;;;;;58.85;13.23;;;21.30;43.70;;;;;;5019457;28;20030;-78
2021/12/25 09:38:29;;;;;;;79.25;13.13;;;21.30;44.00;;;;;;5010007;28;20037;-77
2021/12/25 09:40:56;;;;;;;73.18;12.52;;;21.30;44.30;;;;;;5017657;28;20143;-75
2021/12/25 09:43:22;;;;;;;72.05;12.32;;;21.30;44.50;;;;;;5013275;28;20052;-77
2021/12/25 09:45:48;;;;;;;59.88;11.55;;;21.30;44.60;;;;;;5012888;28;20049;-76
2021/12/25 09:48:13;;;;;;;59.63;10.90;;;21.30;44.80;;;;;;4993834;28;20041;-79
2021/12/25 09:50:39;;;;;;;59.22;10.80;;;21.30;44.90;;;;;;5018231;28;20086;-72
2021/12/25 09:53:10;;;;;;;54.70;10.50;;;21.30;45.00;;;;;;5012583;28;20046;-74
2021/12/25 09:55:39;;;;;;;64.82;11.13;;;21.30;45.00;;;;;;5011027;28;20558;-74
2021/12/25 09:58:06;;;;;;;57.28;10.32;;;21.20;45.00;;;;;;5012727;28;20038;-76
2021/12/25 10:00:35;;;;;;;59.88;9.75;;;21.20;45.10;;;;;;5013820;28;20049;-77
2021/12/25 10:03:01;;;;;;;56.17;10.73;;;21.20;45.10;;;;;;5014829;28;20034;-76
2021/12/25 10:05:39;;;;;;;42.60;10.43;;;21.20;45.10;;;;;;5013688;28;20045;-78
2021/12/25 10:08:13;;;;;;;48.45;8.88;;;21.20;45.10;;;;;;5014827;28;20065;-79
2021/12/25 10:10:47;;;;;;;42.05;9.93;;;21.20;45.20;;;;;;5013983;28;20125;-78
2021/12/25 10:13:21;;;;;;;48.47;9.98;;;21.20;45.20;;;;;;5015843;28;20378;-75
2021/12/25 10:15:47;;;;;;;40.33;9.25;;;21.20;45.20;;;;;;5028834;28;20559;-78
2021/12/25 10:18:13;;;;;;;42.03;8.35;;;21.10;45.10;;;;;;5018878;28;20049;-76
2021/12/25 10:20:39;;;;;;;49.10;9.57;;;21.10;45.10;;;;;;5010325;28;20080;-76
2021/12/25 10:23:15;;;;;;;40.00;8.70;;;21.10;45.10;;;;;;5017015;28;20064;-72
2021/12/25 10:25:53;;;;;;;40.53;9.38;;;21.10;45.10;;;;;;5015427;28;20026;-76
2021/12/25 10:28:22;;;;;;;47.17;8.35;;;21.10;45.20;;;;;;5019548;28;20096;-76
2021/12/25 10:30:54;;;;;;;34.72;8.65;;;21.10;45.20;;;;;;5026855;28;20041;-77
2021/12/25 10:33:35;;;;;;;55.20;12.48;;;21.10;45.10;;;;;;5015072;28;20084;-73
2021/12/25 10:36:09;;;;;;;46.35;13.10;;;21.10;45.10;;;;;;5015317;28;20064;-73
2021/12/25 10:38:38;;;;;;;50.67;13.40;;;21.00;45.00;;;;;;5011037;28;20056;-76
2021/12/25 10:41:10;;;;;;;43.75;11.73;;;21.00;45.00;;;;;;5014329;28;20434;-73
2021/12/25 10:43:41;;;;;;;47.25;11.90;;;21.00;45.10;;;;;;5000558;28;21378;-79
2021/12/25 10:46:07;;;;;;;45.28;11.27;;;21.00;45.00;;;;;;5015385;28;20080;-78
2021/12/25 10:48:33;;;;;;;40.55;10.88;;;21.00;45.10;;;;;;5019485;28;20514;-76
2021/12/25 10:50:59;;;;;;;42.33;10.30;;;21.00;45.10;;;;;;5011586;28;20065;-77
2021/12/25 10:53:29;;;;;;;39.70;10.25;;;21.00;45.10;;;;;;5018626;28;20137;-78
2021/12/25 10:56:15;;;;;;;36.85;10.63;;;21.00;45.10;;;;;;5018309;28;20038;-73
2021/12/25 10:58:43;;;;;;;36.83;9.55;;;21.00;45.10;;;;;;5013559;28;20041;-75
2021/12/25 11:01:12;;;;;;;38.28;9.05;;;21.00;45.10;;;;;;5013643;28;20040;-82
2021/12/25 11:03:44;;;;;;;42.42;9.90;;;21.00;45.10;;;;;;5016924;28;20041;-78
2021/12/25 11:06:18;;;;;;;31.17;9.48;;;21.00;45.10;;;;;;5021617;28;20046;-82
2021/12/25 11:08:45;;;;;;;48.85;8.88;;;21.00;45.10;;;;;;5015989;28;20046;-82
2021/12/25 11:11:13;;;;;;;34.15;8.07;;;20.90;45.80;;;;;;5014241;28;20044;-79
2021/12/25 11:13:41;;;;;;;23.55;7.70;;;20.90;45.00;;;;;;5014773;28;20049;-81
2021/12/25 11:16:14;;;;;;;27.73;8.20;;;20.90;45.10;;;;;;5020963;28;20053;-82
2021/12/25 11:19:05;;;;;;;29.50;7.80;;;20.90;45.10;;;;;;5018409;28;20056;-78
2021/12/25 11:21:34;;;;;;;29.90;7.90;;;20.90;45.10;;;;;;5012296;28;20048;-80
2021/12/25 11:24:09;;;;;;;29.65;7.50;;;20.90;45.10;;;;;;5006983;28;20045;-77
2021/12/25 11:26:36;;;;;;;21.35;6.85;;;20.90;45.10;;;;;;5016959;28;20048;-79
2021/12/25 11:29:04;;;;;;;25.15;7.28;;;20.90;45.10;;;;;;5017111;28;20030;-78
2021/12/25 11:31:31;;;;;;;35.92;7.07;;;20.80;44.90;;;;;;5018722;28;20060;-73
2021/12/25 11:33:57;;;;;;;28.83;7.45;;;20.90;44.90;;;;;;5018919;28;20121;-75
2021/12/25 11:36:23;;;;;;;29.08;6.97;;;20.90;45.00;;;;;;5018973;28;20054;-83
2021/12/25 11:38:50;;;;;;;19.30;6.43;;;20.90;45.00;;;;;;5016678;28;20037;-80
2021/12/25 11:41:16;;;;;;;20.00;5.90;;;20.90;45.00;;;;;;5019408;28;20539;-82
2021/12/25 11:43:46;;;;;;;17.70;5.47;;;20.90;45.00;;;;;;5014017;28;20492;-75
2021/12/25 11:46:14;;;;;;;22.17;6.20;;;20.90;45.00;;;;;;5017102;28;20460;-81
2021/12/25 11:48:40;;;;;;;;;;;20.90;44.80;;;;;;5023861;28;20165;-73
2021/12/25 11:51:22;;;;;;;17.63;5.07;;;20.90;44.60;;;;;;5015816;28;20091;-81
2021/12/25 11:54:11;;;;;;;18.83;5.97;;;20.90;44.70;;;;;;5011320;28;20130;-83
2021/12/25 11:56:49;;;;;;;;;;;20.90;44.60;;;;;;5012075;28;20045;-83
2021/12/25 11:59:20;;;;;;;21.20;5.10;;;20.90;44.80;;;;;;5017419;28;20401;-78
2021/12/25 12:01:51;;;;;;;16.88;4.90;;;20.90;44.70;;;;;;5018371;28;20048;-75
2021/12/25 12:04:25;;;;;;;18.52;4.88;;;20.90;44.70;;;;;;5017564;28;20049;-78
2021/12/25 12:06:53;;;;;;;15.35;5.13;;;20.90;44.60;;;;;;5018761;28;20054;-76
2021/12/25 12:09:48;;;;;;;26.38;5.57;;;20.90;44.60;;;;;;5013870;28;20375;-80
2021/12/25 12:12:18;;;;;;;17.75;5.82;;;20.90;44.50;;;;;;5023593;28;20132;-80
2021/12/25 12:14:45;;;;;;;18.48;5.13;;;20.90;44.60;;;;;;5022324;28;20037;-80
2021/12/25 12:17:19;;;;;;;18.35;4.85;;;20.90;44.50;;;;;;5023478;28;20045;-77
2021/12/25 12:19:50;;;;;;;18.35;4.53;;;20.90;44.60;;;;;;5015956;28;20050;-80
2021/12/25 12:25:01;;;;;;;12.05;4.28;;;20.90;44.50;;;;;;5016937;28;20057;-70
2021/12/25 12:27:39;;;;;;;11.55;3.90;;;20.90;44.50;;;;;;5017028;28;20666;-77
2021/12/25 12:30:08;;;;;;;10.30;3.45;;;20.80;44.00;;;;;;5016179;28;21087;-76
2021/12/25 12:32:35;;;;;;;;;;;20.90;44.00;;;;;;5029310;28;20042;-81
2021/12/25 12:35:03;;;;;;;13.90;4.00;;;20.80;43.40;;;;;;5011823;28;19964;-78
2021/12/25 12:37:31;;;;;;;15.35;3.58;;;20.80;43.80;;;;;;5018710;28;20752;-80
2021/12/25 12:39:59;;;;;;;12.18;3.85;;;20.70;43.60;;;;;;5015120;28;20551;-74
2021/12/25 12:42:41;;;;;;;15.77;3.83;;;20.70;43.40;;;;;;5030330;28;20184;-78
2021/12/25 12:45:28;;;;;;;16.27;3.22;;;20.70;43.00;;;;;;5024251;28;20045;-79
2021/12/25 12:48:19;;;;;;;8.38;3.03;;;20.70;43.00;;;;;;5015289;28;20052;-77
2021/12/25 12:50:51;;;;;;;8.18;3.17;;;20.70;42.80;;;;;;5019202;28;20076;-79
2021/12/25 12:53:18;;;;;;;9.65;3.22;;;20.60;42.90;;;;;;5021940;28;20145;-76
2021/12/25 12:55:47;;;;;;;12.13;2.97;;;20.60;42.80;;;;;;5024314;28;20037;-77
2021/12/25 12:58:23;;;;;;;8.15;3.30;;;20.60;42.60;;;;;;5024670;28;20041;-77
2021/12/25 13:00:56;;;;;;;9.93;2.80;;;20.50;42.40;;;;;;5024023;28;20562;-78
2021/12/25 13:03:23;;;;;;;9.60;2.88;;;20.50;42.30;;;;;;5024050;28;20053;-78
2021/12/25 13:05:58;;;;;;;12.18;2.60;;;20.50;42.30;;;;;;5020984;28;20120;-79
2021/12/25 13:08:28;;;;;;;12.98;2.60;;;20.40;42.10;;;;;;5024025;28;20060;-79
2021/12/25 13:11:03;;;;;;;9.48;2.60;;;20.40;42.00;;;;;;5020601;28;20046;-79
2021/12/25 13:13:37;;;;;;;6.00;2.13;;;20.40;41.90;;;;;;5022578;28;20045;-79
2021/12/25 13:16:10;;;;;;;5.93;2.30;;;20.40;41.80;;;;;;4988732;28;20095;-79
2021/12/25 13:18:44;;;;;;;4.43;2.25;;;20.30;41.70;;;;;;5011306;28;20046;-77
2021/12/25 13:21:14;;;;;;;9.45;2.50;;;20.30;41.60;;;;;;5020263;28;20041;-79
2021/12/25 13:23:49;;;;;;;9.02;2.50;;;20.30;41.60;;;;;;5022337;28;20055;-79
2021/12/25 13:26:15;;;;;;;7.50;2.30;;;20.30;41.60;;;;;;5020515;28;20442;-79
2021/12/25 13:28:44;;;;;;;5.45;2.17;;;20.30;41.60;;;;;;5013002;28;20033;-77
2021/12/25 13:31:16;;;;;;;7.60;2.20;;;20.30;41.60;;;;;;4983179;28;20049;-77
2021/12/25 13:33:47;;;;;;;6.72;2.17;;;20.20;41.40;;;;;;4997623;28;20049;-81
2021/12/25 13:36:22;;;;;;;5.45;2.08;;;20.20;41.20;;;;;;5014648;28;20555;-78
2021/12/25 13:39:06;;;;;;;7.75;2.75;;;20.20;41.10;;;;;;5015143;28;20046;-81
2021/12/25 13:41:41;;;;;;;6.75;2.00;;;20.10;41.20;;;;;;5013930;28;20057;-74
2021/12/25 13:44:29;;;;;;;6.07;1.90;;;20.10;41.20;;;;;;5015836;28;20539;-72
2021/12/25 13:46:58;;;;;;;;;;;20.20;41.50;;;;;;5011425;28;20049;-74
2021/12/25 13:49:30;;;;;;;;;;;20.20;41.70;;;;;;5013346;28;20376;-75
2021/12/25 13:51:57;;;;;;;4.95;2.20;;;20.10;41.70;;;;;;5015991;28;19929;-75
2021/12/25 13:54:23;;;;;;;5.28;2.03;;;20.20;41.80;;;;;;5006619;28;20528;-77
2021/12/25 13:56:51;;;;;;;6.78;2.38;;;20.20;41.80;;;;;;5015361;28;20046;-76
2021/12/25 13:59:17;;;;;;;7.90;2.13;;;20.20;41.70;;;;;;5016399;28;20994;-74
2021/12/25 14:01:43;;;;;;;5.80;2.10;;;20.20;41.80;;;;;;5009766;28;20548;-77
2021/12/25 14:04:10;;;;;;;8.93;2.20;;;20.20;41.70;;;;;;5019399;28;20049;-76
2021/12/25 14:06:37;;;;;;;7.13;1.70;;;20.30;41.80;;;;;;5010749;28;20060;-76
2021/12/25 14:09:04;;;;;;;6.07;1.92;;;20.30;41.90;;;;;;5013777;28;20344;-77
2021/12/25 14:11:30;;;;;;;4.70;2.08;;;20.30;41.90;;;;;;5017137;28;20584;-74